createdAt,value
2023-09-15T00:01:47.998Z,5.83
2023-09-15T00:04:49.404Z,5.05
2023-09-15T00:07:50.781Z,4.78
2023-09-15T00:10:52.114Z,4.90
2023-09-15T00:13:53.550Z,5.97
2023-09-15T00:16:54.956Z,5.07
2023-09-15T00:19:56.309Z,4.45
2023-09-15T00:22:57.661Z,5.68
2023-09-15T00:25:59.002Z,5.07
2023-09-15T00:29:00.351Z,4.60
2023-09-15T00:32:01.719Z,5.40
2023-09-15T00:35:03.133Z,4.05
2023-09-15T00:38:04.512Z,4.28
2023-09-15T00:41:05.995Z,5.03
2023-09-15T00:44:07.348Z,5.25
2023-09-15T00:47:08.704Z,4.63
2023-09-15T00:50:10.024Z,5.32
2023-09-15T00:53:11.356Z,5.53
2023-09-15T00:56:12.712Z,4.72
2023-09-15T00:59:14.086Z,4.75
2023-09-15T01:02:15.471Z,5.03
2023-09-15T01:05:16.792Z,5.55
2023-09-15T01:08:18.146Z,4.88
2023-09-15T01:11:19.500Z,5.63
2023-09-15T01:14:20.859Z,4.68
2023-09-15T01:17:22.184Z,5.30
2023-09-15T01:20:23.538Z,5.32
2023-09-15T01:23:24.882Z,5.38
2023-09-15T01:26:26.228Z,5.30
2023-09-15T01:29:27.548Z,5.72
2023-09-15T01:32:28.932Z,4.47
2023-09-15T01:35:30.321Z,5.40
2023-09-15T01:38:31.636Z,5.15
2023-09-15T01:41:32.979Z,5.05
2023-09-15T01:44:34.306Z,5.05
2023-09-15T01:47:35.658Z,4.70
2023-09-15T01:50:37.033Z,5.38
2023-09-15T01:53:38.375Z,4.68
2023-09-15T01:56:39.772Z,4.97
2023-09-15T01:59:41.100Z,4.65
2023-09-15T02:02:42.559Z,4.30
2023-09-15T02:05:43.961Z,5.45
2023-09-15T02:08:45.454Z,4.93
2023-09-15T02:11:46.966Z,4.93
2023-09-15T02:14:48.332Z,4.97
2023-09-15T02:17:49.702Z,4.83
2023-09-15T02:20:51.092Z,5.20
2023-09-15T02:23:52.430Z,3.83
2023-09-15T02:26:53.777Z,4.97
2023-09-15T02:29:55.120Z,4.22
2023-09-15T02:32:56.503Z,4.60
2023-09-15T02:35:57.870Z,5.03
2023-09-15T02:38:59.205Z,4.45
2023-09-15T02:42:00.580Z,4.93
2023-09-15T02:45:01.938Z,4.43
2023-09-15T02:48:03.335Z,5.07
2023-09-15T02:51:05.164Z,5.20
2023-09-15T02:54:06.503Z,4.60
2023-09-15T02:57:07.865Z,5.30
2023-09-15T03:00:09.274Z,4.82
2023-09-15T03:03:10.679Z,4.10
2023-09-15T03:06:12.114Z,5.05
2023-09-15T03:09:13.457Z,4.93
2023-09-15T03:12:14.785Z,4.32
2023-09-15T03:15:16.133Z,4.82
2023-09-15T03:18:17.525Z,4.90
2023-09-15T03:21:18.928Z,5.35
2023-09-15T03:24:20.298Z,4.93
2023-09-15T03:27:21.651Z,5.00
2023-09-15T03:30:23.033Z,4.77
2023-09-15T03:33:24.368Z,5.03
2023-09-15T03:36:25.702Z,4.47
2023-09-15T03:39:27.040Z,5.20
2023-09-15T03:42:28.426Z,4.88
2023-09-15T03:45:29.866Z,5.78
2023-09-15T03:48:31.212Z,5.23
2023-09-15T03:51:32.541Z,5.90
2023-09-15T03:54:33.927Z,5.85
2023-09-15T03:57:35.272Z,6.40
2023-09-15T04:00:36.614Z,5.90
2023-09-15T04:03:37.982Z,6.20
2023-09-15T04:06:39.399Z,5.95
2023-09-15T04:09:40.733Z,5.82
2023-09-15T04:12:42.092Z,5.70
2023-09-15T04:15:43.423Z,5.25
2023-09-15T04:18:44.966Z,4.93
2023-09-15T04:21:46.504Z,5.38
2023-09-15T04:24:48.034Z,5.60
2023-09-15T04:27:49.549Z,5.47
2023-09-15T04:30:50.938Z,6.28
2023-09-15T04:33:52.328Z,6.37
2023-09-15T04:36:53.711Z,5.50
2023-09-15T04:39:55.117Z,4.63
2023-09-15T04:42:56.532Z,5.75
2023-09-15T04:45:57.974Z,5.90
2023-09-15T04:48:59.438Z,6.17
2023-09-15T04:52:00.845Z,5.55
2023-09-15T04:55:02.283Z,5.75
2023-09-15T04:58:03.700Z,5.85
2023-09-15T05:01:05.187Z,6.15
2023-09-15T05:04:06.688Z,5.63
2023-09-15T05:07:08.127Z,5.45
2023-09-15T05:10:09.512Z,4.75
2023-09-15T05:13:11.036Z,5.22
2023-09-15T05:16:12.488Z,5.05
2023-09-15T05:19:13.916Z,4.03
2023-09-15T05:22:15.379Z,5.35
2023-09-15T05:25:16.803Z,4.82
2023-09-15T05:28:18.220Z,5.43
2023-09-15T05:31:19.626Z,5.57
2023-09-15T05:34:21.073Z,4.60
2023-09-15T05:37:22.495Z,5.28
2023-09-15T05:40:23.926Z,5.07
2023-09-15T05:43:25.327Z,4.70
2023-09-15T05:46:26.875Z,5.15
2023-09-15T05:49:30.441Z,5.60
2023-09-15T05:52:32.653Z,5.20
2023-09-15T05:55:34.057Z,12.30
2023-09-15T05:58:35.438Z,6.78
2023-09-15T06:01:36.830Z,6.25
2023-09-15T06:04:38.295Z,6.77
2023-09-15T06:07:39.718Z,7.70
2023-09-15T06:10:41.360Z,7.45
2023-09-15T06:13:42.824Z,7.07
2023-09-15T06:16:44.252Z,6.68
2023-09-15T06:19:45.738Z,7.93
2023-09-15T06:22:47.162Z,5.95
2023-09-15T06:25:48.511Z,6.15
2023-09-15T06:28:50.095Z,5.60
2023-09-15T06:31:51.874Z,6.15
2023-09-15T06:34:53.293Z,6.60
2023-09-15T06:37:54.617Z,5.53
2023-09-15T06:40:55.969Z,5.57
2023-09-15T06:43:57.315Z,5.82
2023-09-15T06:46:58.754Z,6.57
2023-09-15T06:50:00.187Z,5.37
2023-09-15T06:53:01.560Z,5.75
2023-09-15T06:56:02.902Z,5.65
2023-09-15T06:59:04.283Z,6.00
2023-09-15T07:02:06.090Z,6.10
2023-09-15T07:05:07.491Z,9.33
2023-09-15T07:08:08.890Z,5.35
2023-09-15T07:11:10.312Z,5.32
2023-09-15T07:14:11.702Z,6.53
2023-09-15T07:17:13.072Z,5.57
2023-09-15T07:20:14.477Z,5.77
2023-09-15T07:23:15.989Z,5.93
2023-09-15T07:26:17.401Z,5.78
2023-09-15T07:29:18.761Z,5.47
2023-09-15T07:32:20.106Z,6.00
2023-09-15T07:35:21.465Z,5.97
2023-09-15T07:38:22.814Z,5.72
2023-09-15T07:41:24.168Z,6.00
2023-09-15T07:44:25.545Z,5.90
2023-09-15T07:47:26.948Z,5.10
2023-09-15T07:50:28.319Z,5.27
2023-09-15T07:53:29.649Z,5.30
2023-09-15T07:56:31.002Z,5.55
2023-09-15T07:59:32.376Z,5.32
2023-09-15T08:02:33.728Z,10.90
2023-09-15T08:05:35.166Z,13.40
2023-09-15T08:08:36.519Z,12.55
2023-09-15T08:11:38.143Z,10.65
2023-09-15T08:14:39.478Z,11.35
2023-09-15T08:17:41.063Z,11.10
2023-09-15T08:20:42.510Z,10.83
2023-09-15T08:23:43.943Z,10.50
2023-09-15T08:26:45.493Z,8.95
2023-09-15T08:29:47.048Z,7.82
2023-09-15T08:32:48.552Z,8.25
2023-09-15T08:35:49.895Z,7.77
2023-09-15T08:38:51.269Z,8.40
2023-09-15T08:41:52.599Z,7.40
2023-09-15T08:44:53.970Z,8.40
2023-09-15T08:47:55.355Z,6.93
2023-09-15T08:50:56.765Z,7.80
2023-09-15T08:53:58.161Z,6.00
2023-09-15T08:56:59.521Z,6.75
2023-09-15T09:00:01.010Z,7.60
2023-09-15T09:03:02.419Z,6.63
2023-09-15T09:06:03.836Z,6.67
2023-09-15T09:09:05.161Z,6.68
2023-09-15T09:12:06.516Z,7.40
2023-09-15T09:15:07.834Z,6.65
2023-09-15T09:18:09.910Z,7.50
2023-09-15T09:21:11.373Z,6.23
2023-09-15T09:24:12.698Z,6.30
2023-09-15T09:27:14.068Z,6.40
2023-09-15T09:30:15.407Z,5.53
2023-09-15T09:33:16.742Z,5.60
2023-09-15T09:36:18.504Z,4.83
2023-09-15T09:39:20.158Z,5.30
2023-09-15T09:42:21.559Z,6.43
2023-09-15T09:45:22.926Z,5.25
2023-09-15T09:48:24.369Z,5.28
2023-09-15T09:51:25.851Z,5.13
2023-09-15T09:54:27.286Z,6.30
2023-09-15T09:57:28.748Z,6.32
2023-09-15T10:00:30.185Z,4.97
2023-09-15T10:03:31.610Z,5.78
2023-09-15T10:06:33.016Z,5.50
2023-09-15T10:09:34.408Z,5.70
2023-09-15T10:12:35.833Z,5.60
2023-09-15T10:15:37.285Z,4.63
2023-09-15T10:18:38.702Z,5.20
2023-09-15T10:21:40.114Z,5.37
2023-09-15T10:24:41.547Z,5.80
2023-09-15T10:27:42.918Z,5.35
2023-09-15T10:30:44.286Z,5.13
2023-09-15T10:33:45.735Z,5.32
2023-09-15T10:36:47.257Z,5.03
2023-09-15T10:39:48.642Z,6.63
2023-09-15T10:42:49.997Z,4.45
2023-09-15T10:45:51.358Z,5.13
2023-09-15T10:48:53.189Z,5.35
2023-09-15T10:51:54.904Z,4.90
2023-09-15T10:54:56.398Z,4.88
2023-09-15T10:57:57.765Z,4.68
2023-09-15T11:00:59.142Z,5.10
2023-09-15T11:04:00.514Z,4.10
2023-09-15T11:07:01.903Z,4.93
2023-09-15T11:10:03.264Z,5.57
2023-09-15T11:13:04.662Z,5.75
2023-09-15T11:16:06.097Z,5.32
2023-09-15T11:19:07.473Z,4.78
2023-09-15T11:22:08.809Z,5.53
2023-09-15T11:25:17.146Z,4.57
2023-09-15T11:28:19.231Z,4.97
2023-09-15T11:31:20.594Z,4.72
2023-09-15T11:34:22.017Z,4.80
2023-09-15T11:37:23.451Z,4.47
2023-09-15T11:40:24.804Z,4.22
2023-09-15T11:43:26.154Z,6.35
2023-09-15T11:46:27.536Z,5.97
2023-09-15T11:49:28.946Z,4.72
2023-09-15T11:52:30.297Z,4.73
2023-09-15T11:55:31.673Z,5.15
2023-09-15T11:58:33.025Z,4.85
2023-09-15T12:01:34.422Z,5.60
2023-09-15T12:04:35.879Z,4.40
2023-09-15T12:07:37.297Z,4.37
2023-09-15T12:10:38.695Z,5.72
2023-09-15T12:13:40.157Z,4.68
2023-09-15T12:16:41.602Z,5.18
2023-09-15T12:19:42.973Z,5.97
2023-09-15T12:22:44.323Z,4.90
2023-09-15T12:25:45.645Z,4.75
2023-09-15T12:28:47.181Z,4.28
2023-09-15T12:31:48.839Z,5.25
2023-09-15T12:34:50.224Z,5.00
2023-09-15T12:37:51.601Z,5.07
2023-09-15T12:40:52.918Z,6.15
2023-09-15T12:43:54.279Z,7.25
2023-09-15T12:46:55.751Z,5.97
2023-09-15T12:49:57.156Z,5.53
2023-09-15T12:52:58.476Z,5.17
2023-09-15T12:55:59.812Z,5.78
2023-09-15T12:59:01.151Z,5.05
2023-09-15T13:02:02.611Z,5.50
2023-09-15T13:05:04.275Z,6.38
2023-09-15T13:08:05.866Z,5.97
2023-09-15T13:11:07.191Z,5.80
2023-09-15T13:14:08.539Z,4.85
2023-09-15T13:17:09.878Z,5.30
2023-09-15T13:20:11.229Z,5.75
2023-09-15T13:23:12.614Z,7.20
2023-09-15T13:26:13.975Z,7.28
2023-09-15T13:29:15.329Z,6.80
2023-09-15T13:32:16.696Z,8.38
2023-09-15T13:35:18.053Z,7.40
2023-09-15T13:38:19.413Z,6.60
2023-09-15T13:41:20.776Z,5.57
2023-09-15T13:44:22.087Z,4.70
2023-09-15T13:47:23.406Z,6.72
2023-09-15T13:50:24.857Z,6.28
2023-09-15T13:53:26.224Z,6.57
2023-09-15T13:56:27.576Z,7.22
2023-09-15T13:59:28.970Z,5.78
2023-09-15T14:02:30.310Z,5.43
2023-09-15T14:05:31.677Z,6.57
2023-09-15T14:08:33.022Z,4.97
2023-09-15T14:11:34.378Z,5.38
2023-09-15T14:14:35.770Z,5.63
2023-09-15T14:17:38.365Z,6.03
2023-09-15T14:20:39.733Z,5.20
2023-09-15T14:23:41.088Z,5.93
2023-09-15T14:26:42.436Z,4.78
2023-09-15T14:29:43.836Z,5.20
2023-09-15T14:32:45.231Z,4.47
2023-09-15T14:35:46.602Z,4.72
2023-09-15T14:38:48.204Z,5.70
2023-09-15T14:41:49.681Z,5.75
2023-09-15T14:44:51.015Z,5.38
2023-09-15T14:47:52.385Z,4.55
2023-09-15T14:50:53.768Z,6.60
2023-09-15T14:53:55.128Z,4.83
2023-09-15T14:56:56.485Z,5.18
2023-09-15T14:59:57.819Z,5.80
2023-09-15T15:02:59.219Z,5.45
2023-09-15T15:06:00.600Z,4.78
2023-09-15T15:09:01.940Z,4.90
2023-09-15T15:12:03.296Z,5.32
2023-09-15T15:15:04.630Z,4.82
2023-09-15T15:18:08.054Z,5.47
2023-09-15T15:21:11.176Z,5.22
2023-09-15T15:24:12.553Z,4.43
2023-09-15T15:27:13.935Z,5.13
2023-09-15T15:30:15.540Z,6.13
2023-09-15T15:33:16.947Z,5.57
2023-09-15T15:36:18.309Z,5.63
2023-09-15T15:39:19.700Z,5.23
2023-09-15T15:42:21.089Z,5.10
2023-09-15T15:45:22.498Z,5.05
2023-09-15T15:48:23.857Z,4.60
2023-09-15T15:51:25.258Z,5.55
2023-09-15T15:54:26.699Z,6.47
2023-09-15T15:57:28.056Z,5.95
2023-09-15T16:00:29.508Z,5.10
2023-09-15T16:03:30.982Z,5.28
2023-09-15T16:06:32.526Z,5.10
2023-09-15T16:09:34.068Z,5.80
2023-09-15T16:12:35.546Z,4.18
2023-09-15T16:15:36.960Z,4.72
2023-09-15T16:18:38.441Z,4.35
2023-09-15T16:21:39.878Z,4.25
2023-09-15T16:24:41.394Z,5.00
2023-09-15T16:27:42.799Z,5.47
2023-09-15T16:30:44.254Z,5.15
2023-09-15T16:33:45.706Z,5.80
2023-09-15T16:36:47.151Z,5.82
2023-09-15T16:39:48.787Z,5.97
2023-09-15T16:42:50.270Z,5.70
2023-09-15T16:45:51.652Z,4.97
2023-09-15T16:48:53.125Z,5.03
2023-09-15T16:51:54.606Z,5.43
2023-09-15T16:54:56.121Z,5.50
2023-09-15T16:57:57.565Z,6.30
2023-09-15T17:00:58.938Z,5.45
2023-09-15T17:04:01.437Z,5.85
2023-09-15T17:07:02.972Z,5.40
2023-09-15T17:10:04.460Z,5.90
2023-09-15T17:13:05.900Z,5.97
2023-09-15T17:16:07.342Z,6.82
2023-09-15T17:19:08.704Z,5.40
2023-09-15T17:22:10.062Z,6.40
2023-09-15T17:25:11.396Z,6.83
2023-09-15T17:28:12.748Z,6.50
2023-09-15T17:31:14.096Z,6.57
2023-09-15T17:34:15.430Z,7.15
2023-09-15T17:37:16.886Z,7.03
2023-09-15T17:40:18.230Z,7.23
2023-09-15T17:43:19.619Z,6.95
2023-09-15T17:46:21.058Z,6.22
2023-09-15T17:49:22.460Z,7.82
2023-09-15T17:52:23.788Z,7.97
2023-09-15T17:55:25.479Z,7.17
2023-09-15T17:58:26.926Z,6.55
2023-09-15T18:01:28.444Z,8.55
2023-09-15T18:04:30.073Z,8.52
2023-09-15T18:07:31.474Z,9.35
2023-09-15T18:10:32.801Z,7.80
2023-09-15T18:13:34.260Z,8.13
2023-09-15T18:16:35.707Z,8.20
2023-09-15T18:19:37.058Z,7.10
2023-09-15T18:22:38.409Z,7.88
2023-09-15T18:25:39.795Z,7.27
2023-09-15T18:28:41.418Z,8.30
2023-09-15T18:31:43.236Z,6.97
2023-09-15T18:34:45.016Z,6.85
2023-09-15T18:37:46.815Z,7.03
2023-09-15T18:40:48.631Z,7.20
2023-09-15T18:43:50.424Z,7.38
2023-09-15T18:46:51.878Z,8.35
2023-09-15T18:49:53.270Z,7.20
2023-09-15T18:52:55.081Z,7.35
2023-09-15T18:55:56.525Z,7.43
2023-09-15T18:58:58.366Z,5.63
2023-09-15T19:01:59.801Z,6.80
2023-09-15T19:05:01.157Z,6.85
2023-09-15T19:08:02.523Z,6.57
2023-09-15T19:11:04.372Z,6.10
2023-09-15T19:14:05.868Z,6.05
2023-09-15T19:17:07.650Z,6.28
2023-09-15T19:20:09.521Z,7.25
2023-09-15T19:23:11.389Z,7.32
2023-09-15T19:26:13.258Z,7.10
2023-09-15T19:29:15.154Z,5.72
2023-09-15T19:32:16.629Z,6.45
2023-09-15T19:35:18.448Z,5.93
2023-09-15T19:38:20.388Z,5.82
2023-09-15T19:41:21.830Z,5.73
2023-09-15T19:44:23.189Z,5.97
2023-09-15T19:47:24.540Z,6.97
2023-09-15T19:50:25.888Z,6.07
2023-09-15T19:53:27.663Z,5.95
2023-09-15T19:56:29.582Z,7.20
2023-09-15T19:59:31.052Z,5.18
2023-09-15T20:02:32.899Z,5.35
2023-09-15T20:05:34.362Z,5.70
2023-09-15T20:08:36.126Z,6.35
2023-09-15T20:11:37.971Z,5.60
2023-09-15T20:14:39.423Z,6.05
2023-09-15T20:17:40.943Z,5.55
2023-09-15T20:20:46.800Z,5.47
2023-09-15T20:23:49.270Z,6.18
2023-09-15T20:26:50.836Z,6.70
2023-09-15T20:29:52.180Z,5.63
2023-09-15T20:32:53.621Z,5.88
2023-09-15T20:35:55.000Z,5.93
2023-09-15T20:38:56.349Z,6.68
2023-09-15T20:41:57.680Z,5.83
2023-09-15T20:44:59.029Z,5.72
2023-09-15T20:48:00.449Z,6.07
2023-09-15T20:51:01.828Z,4.60
2023-09-15T20:54:03.181Z,5.90
2023-09-15T20:57:04.547Z,5.77
2023-09-15T21:00:05.946Z,5.88
2023-09-15T21:03:07.337Z,6.45
2023-09-15T21:06:08.676Z,6.35
2023-09-15T21:09:10.027Z,6.15
2023-09-15T21:12:11.379Z,6.50
2023-09-15T21:15:12.707Z,6.35
2023-09-15T21:18:14.149Z,4.47
2023-09-15T21:21:15.537Z,5.57
2023-09-15T21:24:16.925Z,6.30
2023-09-15T21:27:18.274Z,6.90
2023-09-15T21:30:19.629Z,5.30
2023-09-15T21:33:21.042Z,5.30
2023-09-15T21:36:22.414Z,6.03
2023-09-15T21:39:23.770Z,5.85
2023-09-15T21:42:25.180Z,5.83
2023-09-15T21:45:26.564Z,4.88
2023-09-15T21:48:27.958Z,6.07
2023-09-15T21:51:29.403Z,6.45
2023-09-15T21:54:30.805Z,5.50
2023-09-15T21:57:32.164Z,5.30
2023-09-15T22:00:33.553Z,5.43
2023-09-15T22:03:35.034Z,4.82
2023-09-15T22:06:36.495Z,5.25
2023-09-15T22:09:37.900Z,5.45
2023-09-15T22:12:39.289Z,5.60
2023-09-15T22:15:40.683Z,5.28
2023-09-15T22:18:42.086Z,4.60
2023-09-15T22:21:43.435Z,5.13
2023-09-15T22:24:44.875Z,5.45
2023-09-15T22:27:46.285Z,5.87
2023-09-15T22:30:47.693Z,5.03
2023-09-15T22:33:49.099Z,4.80
2023-09-15T22:36:50.545Z,6.10
2023-09-15T22:39:51.963Z,5.97
2023-09-15T22:42:53.471Z,4.53
2023-09-15T22:45:54.970Z,4.55
2023-09-15T22:48:56.359Z,5.97
2023-09-15T22:51:57.792Z,5.20
2023-09-15T22:54:59.221Z,5.63
2023-09-15T22:58:00.604Z,5.17
2023-09-15T23:01:02.112Z,4.78
2023-09-15T23:04:03.567Z,4.63
2023-09-15T23:07:04.934Z,5.00
2023-09-15T23:10:06.305Z,5.50
2023-09-15T23:13:07.666Z,5.77
2023-09-15T23:16:09.120Z,5.07
2023-09-15T23:19:10.553Z,5.00
2023-09-15T23:22:11.939Z,4.72
2023-09-15T23:25:13.264Z,5.28
2023-09-15T23:28:14.601Z,5.47
2023-09-15T23:31:16.262Z,4.53
2023-09-15T23:34:17.725Z,5.18
2023-09-15T23:37:19.052Z,5.03
2023-09-15T23:40:20.388Z,4.75
2023-09-15T23:43:21.764Z,5.20
2023-09-15T23:46:23.115Z,4.80
2023-09-15T23:49:24.500Z,5.53
2023-09-15T23:52:25.848Z,5.03
2023-09-15T23:55:27.194Z,4.75
2023-09-15T23:58:28.550Z,4.80
